sensor_id;sensor_type;location;lat;lon;timestamp;P1;durP1;ratioP1;P2;durP2;ratioP2
44046;SDS011;29713;-33.888;151.150;2023-01-15T00:01:47;2.35;;;0.90;;
44046;SDS011;29713;-33.888;151.150;2023-01-15T00:04:15;4.30;;;1.00;;
44046;SDS011;29713;-33.888;151.150;2023-01-15T00:06:42;3.33;;;1.02;;
44046;SDS011;29713;-33.888;151.150;2023-01-15T00:09:12;3.20;;;1.08;;
44046;SDS011;29713;-33.888;151.150;2023-01-15T00:11:40;2.85;;;0.85;;
44046;SDS011;29713;-33.888;151.150;2023-01-15T00:14:08;3.20;;;1.08;;
44046;SDS011;29713;-33.888;151.150;2023-01-15T00:16:36;1.73;;;0.80;;
44046;SDS011;29713;-33.888;151.150;2023-01-15T00:19:08;2.88;;;1.00;;
44046;SDS011;29713;-33.888;151.150;2023-01-15T00:21:37;1.08;;;0.73;;
44046;SDS011;29713;-33.888;151.150;2023-01-15T00:24:04;2.30;;;0.90;;
44046;SDS011;29713;-33.888;151.150;2023-01-15T00:26:49;2.25;;;1.20;;
44046;SDS011;29713;-33.888;151.150;2023-01-15T00:29:34;14.32;;;1.33;;
44046;SDS011;29713;-33.888;151.150;2023-01-15T00:32:03;1.80;;;0.75;;
44046;SDS011;29713;-33.888;151.150;2023-01-15T00:34:32;3.20;;;1.00;;
44046;SDS011;29713;-33.888;151.150;2023-01-15T00:37:00;3.83;;;1.13;;
44046;SDS011;29713;-33.888;151.150;2023-01-15T00:39:28;3.30;;;1.30;;
44046;SDS011;29713;-33.888;151.150;2023-01-15T00:41:55;4.63;;;1.30;;
44046;SDS011;29713;-33.888;151.150;2023-01-15T00:44:23;3.28;;;1.20;;
44046;SDS011;29713;-33.888;151.150;2023-01-15T00:46:50;4.78;;;1.20;;
44046;SDS011;29713;-33.888;151.150;2023-01-15T00:49:17;3.38;;;1.02;;
44046;SDS011;29713;-33.888;151.150;2023-01-15T00:51:45;4.75;;;1.25;;
44046;SDS011;29713;-33.888;151.150;2023-01-15T00:54:14;2.47;;;1.08;;
44046;SDS011;29713;-33.888;151.150;2023-01-15T00:56:42;2.35;;;0.95;;
44046;SDS011;29713;-33.888;151.150;2023-01-15T00:59:09;2.65;;;1.05;;
44046;SDS011;29713;-33.888;151.150;2023-01-15T01:01:37;3.00;;;1.20;;
44046;SDS011;29713;-33.888;151.150;2023-01-15T01:04:05;5.20;;;1.23;;
44046;SDS011;29713;-33.888;151.150;2023-01-15T01:06:32;4.97;;;1.23;;
44046;SDS011;29713;-33.888;151.150;2023-01-15T01:08:59;4.55;;;1.20;;
44046;SDS011;29713;-33.888;151.150;2023-01-15T01:11:27;1.80;;;1.05;;
44046;SDS011;29713;-33.888;151.150;2023-01-15T01:13:59;3.78;;;1.20;;
44046;SDS011;29713;-33.888;151.150;2023-01-15T01:16:31;4.07;;;1.50;;
44046;SDS011;29713;-33.888;151.150;2023-01-15T01:19:08;5.55;;;1.20;;
44046;SDS011;29713;-33.888;151.150;2023-01-15T01:21:37;2.97;;;1.33;;
44046;SDS011;29713;-33.888;151.150;2023-01-15T01:24:06;2.28;;;0.90;;
44046;SDS011;29713;-33.888;151.150;2023-01-15T01:26:36;3.85;;;1.08;;
44046;SDS011;29713;-33.888;151.150;2023-01-15T01:29:03;3.05;;;1.00;;
44046;SDS011;29713;-33.888;151.150;2023-01-15T01:31:31;3.63;;;1.30;;
44046;SDS011;29713;-33.888;151.150;2023-01-15T01:33:58;2.13;;;1.08;;
44046;SDS011;29713;-33.888;151.150;2023-01-15T01:36:30;3.47;;;1.02;;
44046;SDS011;29713;-33.888;151.150;2023-01-15T01:38:59;1.33;;;0.80;;
44046;SDS011;29713;-33.888;151.150;2023-01-15T01:41:27;4.80;;;0.90;;
44046;SDS011;29713;-33.888;151.150;2023-01-15T01:43:58;3.90;;;0.90;;
44046;SDS011;29713;-33.888;151.150;2023-01-15T01:46:32;1.55;;;0.90;;
44046;SDS011;29713;-33.888;151.150;2023-01-15T01:51:39;2.72;;;1.10;;
44046;SDS011;29713;-33.888;151.150;2023-01-15T01:54:10;2.00;;;0.90;;
44046;SDS011;29713;-33.888;151.150;2023-01-15T01:56:41;5.45;;;1.30;;
44046;SDS011;29713;-33.888;151.150;2023-01-15T01:59:09;4.15;;;1.08;;
44046;SDS011;29713;-33.888;151.150;2023-01-15T02:01:37;2.42;;;1.10;;
44046;SDS011;29713;-33.888;151.150;2023-01-15T02:04:05;2.58;;;1.38;;
44046;SDS011;29713;-33.888;151.150;2023-01-15T02:06:35;3.45;;;1.23;;
44046;SDS011;29713;-33.888;151.150;2023-01-15T02:09:04;4.20;;;1.45;;
44046;SDS011;29713;-33.888;151.150;2023-01-15T02:11:32;2.67;;;0.90;;
44046;SDS011;29713;-33.888;151.150;2023-01-15T02:17:12;2.80;;;1.13;;
44046;SDS011;29713;-33.888;151.150;2023-01-15T02:20:35;3.10;;;1.17;;
44046;SDS011;29713;-33.888;151.150;2023-01-15T02:25:31;2.97;;;1.08;;
44046;SDS011;29713;-33.888;151.150;2023-01-15T02:28:33;1.83;;;0.93;;
44046;SDS011;29713;-33.888;151.150;2023-01-15T02:31:14;4.18;;;1.27;;
44046;SDS011;29713;-33.888;151.150;2023-01-15T02:33:53;5.70;;;1.35;;
44046;SDS011;29713;-33.888;151.150;2023-01-15T02:36:29;4.03;;;1.40;;
44046;SDS011;29713;-33.888;151.150;2023-01-15T02:39:01;3.25;;;1.23;;
44046;SDS011;29713;-33.888;151.150;2023-01-15T02:41:34;5.53;;;1.23;;
44046;SDS011;29713;-33.888;151.150;2023-01-15T02:44:11;5.40;;;1.30;;
44046;SDS011;29713;-33.888;151.150;2023-01-15T02:46:41;2.40;;;1.10;;
44046;SDS011;29713;-33.888;151.150;2023-01-15T02:49:11;2.28;;;0.93;;
44046;SDS011;29713;-33.888;151.150;2023-01-15T02:51:56;2.20;;;1.00;;
44046;SDS011;29713;-33.888;151.150;2023-01-15T02:54:28;2.90;;;1.27;;
44046;SDS011;29713;-33.888;151.150;2023-01-15T02:57:01;3.63;;;1.05;;
44046;SDS011;29713;-33.888;151.150;2023-01-15T02:59:33;2.70;;;0.90;;
44046;SDS011;29713;-33.888;151.150;2023-01-15T03:02:07;4.93;;;1.20;;
44046;SDS011;29713;-33.888;151.150;2023-01-15T03:07:40;5.30;;;1.20;;
44046;SDS011;29713;-33.888;151.150;2023-01-15T03:10:12;3.67;;;1.50;;
44046;SDS011;29713;-33.888;151.150;2023-01-15T03:15:38;5.78;;;1.23;;
44046;SDS011;29713;-33.888;151.150;2023-01-15T03:21:30;3.75;;;1.35;;
44046;SDS011;29713;-33.888;151.150;2023-01-15T03:24:06;3.30;;;1.10;;
44046;SDS011;29713;-33.888;151.150;2023-01-15T03:26:36;4.10;;;1.30;;
44046;SDS011;29713;-33.888;151.150;2023-01-15T03:29:03;2.72;;;1.20;;
44046;SDS011;29713;-33.888;151.150;2023-01-15T03:31:33;4.40;;;1.40;;
44046;SDS011;29713;-33.888;151.150;2023-01-15T03:34:02;3.08;;;1.35;;
44046;SDS011;29713;-33.888;151.150;2023-01-15T03:36:32;4.95;;;1.20;;
44046;SDS011;29713;-33.888;151.150;2023-01-15T03:38:59;6.35;;;1.30;;
44046;SDS011;29713;-33.888;151.150;2023-01-15T03:41:35;3.92;;;1.17;;
44046;SDS011;29713;-33.888;151.150;2023-01-15T03:46:51;3.63;;;1.08;;
44046;SDS011;29713;-33.888;151.150;2023-01-15T04:02:47;3.88;;;1.10;;
44046;SDS011;29713;-33.888;151.150;2023-01-15T04:05:15;3.92;;;1.15;;
44046;SDS011;29713;-33.888;151.150;2023-01-15T04:07:43;3.10;;;1.10;;
44046;SDS011;29713;-33.888;151.150;2023-01-15T04:10:13;2.55;;;1.08;;
44046;SDS011;29713;-33.888;151.150;2023-01-15T04:12:40;3.97;;;1.30;;
44046;SDS011;29713;-33.888;151.150;2023-01-15T04:15:09;3.95;;;1.10;;
44046;SDS011;29713;-33.888;151.150;2023-01-15T04:17:37;2.10;;;1.00;;
44046;SDS011;29713;-33.888;151.150;2023-01-15T04:20:05;4.47;;;1.10;;
44046;SDS011;29713;-33.888;151.150;2023-01-15T04:22:33;4.50;;;1.05;;
44046;SDS011;29713;-33.888;151.150;2023-01-15T04:25:01;4.05;;;1.15;;
44046;SDS011;29713;-33.888;151.150;2023-01-15T04:27:30;3.78;;;1.33;;
44046;SDS011;29713;-33.888;151.150;2023-01-15T04:29:57;3.65;;;1.08;;
44046;SDS011;29713;-33.888;151.150;2023-01-15T04:32:24;4.18;;;0.90;;
44046;SDS011;29713;-33.888;151.150;2023-01-15T04:34:52;4.18;;;1.30;;
44046;SDS011;29713;-33.888;151.150;2023-01-15T04:37:19;2.35;;;0.90;;
44046;SDS011;29713;-33.888;151.150;2023-01-15T04:39:46;3.65;;;1.05;;
44046;SDS011;29713;-33.888;151.150;2023-01-15T04:42:14;3.65;;;1.10;;
44046;SDS011;29713;-33.888;151.150;2023-01-15T04:45:10;4.18;;;1.42;;
44046;SDS011;29713;-33.888;151.150;2023-01-15T04:47:37;6.25;;;1.40;;
44046;SDS011;29713;-33.888;151.150;2023-01-15T04:50:05;3.85;;;1.20;;
44046;SDS011;29713;-33.888;151.150;2023-01-15T04:52:33;4.22;;;1.20;;
44046;SDS011;29713;-33.888;151.150;2023-01-15T04:55:00;5.40;;;1.45;;
44046;SDS011;29713;-33.888;151.150;2023-01-15T04:57:27;3.60;;;1.10;;
44046;SDS011;29713;-33.888;151.150;2023-01-15T04:59:55;3.40;;;1.20;;
44046;SDS011;29713;-33.888;151.150;2023-01-15T05:02:23;3.63;;;1.08;;
44046;SDS011;29713;-33.888;151.150;2023-01-15T05:04:50;4.13;;;1.20;;
44046;SDS011;29713;-33.888;151.150;2023-01-15T05:07:17;5.30;;;1.50;;
44046;SDS011;29713;-33.888;151.150;2023-01-15T05:09:45;4.55;;;1.10;;
44046;SDS011;29713;-33.888;151.150;2023-01-15T05:12:16;5.32;;;1.52;;
44046;SDS011;29713;-33.888;151.150;2023-01-15T05:14:43;5.28;;;1.38;;
44046;SDS011;29713;-33.888;151.150;2023-01-15T05:17:10;3.90;;;1.25;;
44046;SDS011;29713;-33.888;151.150;2023-01-15T05:19:38;2.88;;;1.08;;
44046;SDS011;29713;-33.888;151.150;2023-01-15T05:22:05;4.82;;;1.20;;
44046;SDS011;29713;-33.888;151.150;2023-01-15T05:24:32;4.82;;;1.67;;
44046;SDS011;29713;-33.888;151.150;2023-01-15T05:27:00;4.72;;;1.40;;
44046;SDS011;29713;-33.888;151.150;2023-01-15T05:29:30;6.45;;;1.10;;
44046;SDS011;29713;-33.888;151.150;2023-01-15T05:31:57;5.65;;;1.15;;
44046;SDS011;29713;-33.888;151.150;2023-01-15T05:34:24;3.55;;;1.35;;
44046;SDS011;29713;-33.888;151.150;2023-01-15T05:36:52;4.53;;;1.48;;
44046;SDS011;29713;-33.888;151.150;2023-01-15T05:39:19;3.53;;;1.38;;
44046;SDS011;29713;-33.888;151.150;2023-01-15T05:41:46;5.63;;;1.33;;
44046;SDS011;29713;-33.888;151.150;2023-01-15T05:44:18;4.65;;;1.35;;
44046;SDS011;29713;-33.888;151.150;2023-01-15T05:46:47;4.45;;;1.20;;
44046;SDS011;29713;-33.888;151.150;2023-01-15T05:49:17;5.22;;;1.50;;
44046;SDS011;29713;-33.888;151.150;2023-01-15T05:51:47;5.75;;;1.42;;
44046;SDS011;29713;-33.888;151.150;2023-01-15T05:54:26;5.07;;;1.45;;
44046;SDS011;29713;-33.888;151.150;2023-01-15T05:56:55;5.03;;;1.60;;
44046;SDS011;29713;-33.888;151.150;2023-01-15T05:59:23;5.65;;;1.50;;
44046;SDS011;29713;-33.888;151.150;2023-01-15T06:01:52;6.25;;;1.75;;
44046;SDS011;29713;-33.888;151.150;2023-01-15T06:04:21;6.35;;;2.05;;
44046;SDS011;29713;-33.888;151.150;2023-01-15T06:06:50;5.75;;;1.65;;
44046;SDS011;29713;-33.888;151.150;2023-01-15T06:09:19;4.88;;;1.35;;
44046;SDS011;29713;-33.888;151.150;2023-01-15T06:11:47;6.43;;;1.77;;
44046;SDS011;29713;-33.888;151.150;2023-01-15T06:14:15;3.42;;;1.48;;
44046;SDS011;29713;-33.888;151.150;2023-01-15T06:16:43;3.90;;;1.50;;
44046;SDS011;29713;-33.888;151.150;2023-01-15T06:19:11;4.13;;;1.35;;
44046;SDS011;29713;-33.888;151.150;2023-01-15T06:21:39;5.38;;;1.70;;
44046;SDS011;29713;-33.888;151.150;2023-01-15T06:24:07;3.97;;;1.58;;
44046;SDS011;29713;-33.888;151.150;2023-01-15T06:26:34;4.43;;;1.45;;
44046;SDS011;29713;-33.888;151.150;2023-01-15T06:29:03;5.50;;;1.38;;
44046;SDS011;29713;-33.888;151.150;2023-01-15T06:31:30;9.27;;;1.80;;
44046;SDS011;29713;-33.888;151.150;2023-01-15T06:33:57;8.23;;;1.63;;
44046;SDS011;29713;-33.888;151.150;2023-01-15T06:36:25;7.18;;;1.60;;
44046;SDS011;29713;-33.888;151.150;2023-01-15T06:38:53;5.68;;;1.50;;
44046;SDS011;29713;-33.888;151.150;2023-01-15T06:41:21;8.57;;;1.48;;
44046;SDS011;29713;-33.888;151.150;2023-01-15T06:44:10;4.95;;;1.40;;
44046;SDS011;29713;-33.888;151.150;2023-01-15T06:46:57;4.47;;;1.98;;
44046;SDS011;29713;-33.888;151.150;2023-01-15T06:49:48;6.25;;;1.50;;
44046;SDS011;29713;-33.888;151.150;2023-01-15T06:52:21;5.95;;;2.03;;
44046;SDS011;29713;-33.888;151.150;2023-01-15T06:54:50;6.75;;;1.83;;
44046;SDS011;29713;-33.888;151.150;2023-01-15T06:57:17;7.55;;;2.08;;
44046;SDS011;29713;-33.888;151.150;2023-01-15T06:59:46;9.30;;;1.92;;
44046;SDS011;29713;-33.888;151.150;2023-01-15T07:02:14;4.63;;;2.00;;
44046;SDS011;29713;-33.888;151.150;2023-01-15T07:04:42;5.68;;;1.88;;
44046;SDS011;29713;-33.888;151.150;2023-01-15T07:07:10;8.20;;;1.90;;
44046;SDS011;29713;-33.888;151.150;2023-01-15T07:09:37;8.50;;;1.90;;
44046;SDS011;29713;-33.888;151.150;2023-01-15T07:12:04;7.78;;;2.10;;
44046;SDS011;29713;-33.888;151.150;2023-01-15T07:14:32;6.97;;;1.95;;
44046;SDS011;29713;-33.888;151.150;2023-01-15T07:16:59;5.80;;;1.48;;
44046;SDS011;29713;-33.888;151.150;2023-01-15T07:19:27;9.23;;;2.35;;
44046;SDS011;29713;-33.888;151.150;2023-01-15T07:21:54;5.35;;;2.80;;
44046;SDS011;29713;-33.888;151.150;2023-01-15T07:24:21;7.35;;;1.85;;
44046;SDS011;29713;-33.888;151.150;2023-01-15T07:26:49;8.70;;;2.20;;
44046;SDS011;29713;-33.888;151.150;2023-01-15T07:29:16;6.00;;;1.80;;
44046;SDS011;29713;-33.888;151.150;2023-01-15T07:31:43;5.80;;;1.83;;
44046;SDS011;29713;-33.888;151.150;2023-01-15T07:34:11;11.65;;;2.33;;
44046;SDS011;29713;-33.888;151.150;2023-01-15T07:36:38;6.13;;;2.03;;
44046;SDS011;29713;-33.888;151.150;2023-01-15T07:39:06;5.07;;;1.80;;
44046;SDS011;29713;-33.888;151.150;2023-01-15T07:41:35;5.90;;;2.03;;
44046;SDS011;29713;-33.888;151.150;2023-01-15T07:44:21;6.65;;;1.95;;
44046;SDS011;29713;-33.888;151.150;2023-01-15T07:47:28;13.57;;;1.98;;
44046;SDS011;29713;-33.888;151.150;2023-01-15T07:50:13;9.50;;;2.00;;
44046;SDS011;29713;-33.888;151.150;2023-01-15T07:52:42;10.48;;;2.67;;
44046;SDS011;29713;-33.888;151.150;2023-01-15T07:55:10;9.05;;;1.90;;
44046;SDS011;29713;-33.888;151.150;2023-01-15T07:57:38;10.35;;;3.40;;
44046;SDS011;29713;-33.888;151.150;2023-01-15T08:00:08;9.90;;;2.67;;
44046;SDS011;29713;-33.888;151.150;2023-01-15T08:02:38;8.15;;;2.45;;
44046;SDS011;29713;-33.888;151.150;2023-01-15T08:05:06;11.30;;;2.50;;
44046;SDS011;29713;-33.888;151.150;2023-01-15T08:07:37;9.27;;;2.42;;
44046;SDS011;29713;-33.888;151.150;2023-01-15T08:10:05;15.88;;;6.90;;
44046;SDS011;29713;-33.888;151.150;2023-01-15T08:12:34;9.27;;;2.30;;
44046;SDS011;29713;-33.888;151.150;2023-01-15T08:15:20;17.60;;;6.15;;
44046;SDS011;29713;-33.888;151.150;2023-01-15T08:17:48;20.15;;;13.40;;
44046;SDS011;29713;-33.888;151.150;2023-01-15T08:20:17;14.02;;;6.22;;
44046;SDS011;29713;-33.888;151.150;2023-01-15T08:22:46;9.57;;;2.50;;
44046;SDS011;29713;-33.888;151.150;2023-01-15T08:25:15;8.80;;;2.88;;
44046;SDS011;29713;-33.888;151.150;2023-01-15T08:27:45;21.73;;;10.25;;
44046;SDS011;29713;-33.888;151.150;2023-01-15T08:30:13;9.50;;;2.67;;
44046;SDS011;29713;-33.888;151.150;2023-01-15T08:32:43;11.75;;;2.83;;
44046;SDS011;29713;-33.888;151.150;2023-01-15T08:35:10;7.72;;;2.20;;
44046;SDS011;29713;-33.888;151.150;2023-01-15T08:37:38;9.98;;;2.03;;
44046;SDS011;29713;-33.888;151.150;2023-01-15T08:40:07;11.30;;;2.53;;
44046;SDS011;29713;-33.888;151.150;2023-01-15T08:42:35;12.18;;;2.40;;
44046;SDS011;29713;-33.888;151.150;2023-01-15T08:45:03;9.93;;;2.15;;
44046;SDS011;29713;-33.888;151.150;2023-01-15T08:47:30;7.88;;;2.30;;
44046;SDS011;29713;-33.888;151.150;2023-01-15T08:49:58;9.57;;;2.10;;
44046;SDS011;29713;-33.888;151.150;2023-01-15T08:52:25;7.97;;;2.15;;
44046;SDS011;29713;-33.888;151.150;2023-01-15T08:54:52;10.60;;;2.65;;
44046;SDS011;29713;-33.888;151.150;2023-01-15T08:57:19;8.80;;;1.92;;
44046;SDS011;29713;-33.888;151.150;2023-01-15T08:59:47;10.40;;;2.00;;
44046;SDS011;29713;-33.888;151.150;2023-01-15T09:02:14;12.43;;;2.47;;
44046;SDS011;29713;-33.888;151.150;2023-01-15T09:04:42;7.95;;;2.35;;
44046;SDS011;29713;-33.888;151.150;2023-01-15T09:07:10;9.48;;;2.10;;
44046;SDS011;29713;-33.888;151.150;2023-01-15T09:09:37;13.85;;;2.40;;
44046;SDS011;29713;-33.888;151.150;2023-01-15T09:12:05;8.20;;;2.10;;
44046;SDS011;29713;-33.888;151.150;2023-01-15T09:14:33;8.45;;;2.17;;
44046;SDS011;29713;-33.888;151.150;2023-01-15T09:17:00;9.70;;;2.20;;
44046;SDS011;29713;-33.888;151.150;2023-01-15T09:19:28;14.02;;;2.53;;
44046;SDS011;29713;-33.888;151.150;2023-01-15T09:21:55;9.15;;;2.28;;
44046;SDS011;29713;-33.888;151.150;2023-01-15T09:24:22;9.63;;;2.10;;
44046;SDS011;29713;-33.888;151.150;2023-01-15T09:26:49;9.27;;;2.30;;
44046;SDS011;29713;-33.888;151.150;2023-01-15T09:29:18;16.70;;;2.70;;
44046;SDS011;29713;-33.888;151.150;2023-01-15T09:31:45;13.32;;;2.50;;
44046;SDS011;29713;-33.888;151.150;2023-01-15T09:34:12;7.05;;;2.00;;
44046;SDS011;29713;-33.888;151.150;2023-01-15T09:36:40;8.30;;;1.90;;
44046;SDS011;29713;-33.888;151.150;2023-01-15T09:39:07;8.82;;;2.45;;
44046;SDS011;29713;-33.888;151.150;2023-01-15T09:41:48;6.70;;;1.95;;
44046;SDS011;29713;-33.888;151.150;2023-01-15T09:50:28;7.25;;;2.00;;
44046;SDS011;29713;-33.888;151.150;2023-01-15T09:55:39;11.25;;;2.30;;
44046;SDS011;29713;-33.888;151.150;2023-01-15T09:58:13;8.90;;;2.25;;
44046;SDS011;29713;-33.888;151.150;2023-01-15T10:00:47;14.48;;;2.00;;
44046;SDS011;29713;-33.888;151.150;2023-01-15T10:06:10;12.32;;;2.30;;
44046;SDS011;29713;-33.888;151.150;2023-01-15T10:08:43;9.48;;;2.03;;
44046;SDS011;29713;-33.888;151.150;2023-01-15T10:13:44;9.23;;;2.35;;
44046;SDS011;29713;-33.888;151.150;2023-01-15T10:16:26;10.90;;;2.38;;
44046;SDS011;29713;-33.888;151.150;2023-01-15T10:18:56;8.65;;;2.13;;
44046;SDS011;29713;-33.888;151.150;2023-01-15T10:24:18;6.57;;;1.90;;
44046;SDS011;29713;-33.888;151.150;2023-01-15T10:29:24;8.30;;;2.03;;
44046;SDS011;29713;-33.888;151.150;2023-01-15T10:35:39;11.15;;;2.45;;
44046;SDS011;29713;-33.888;151.150;2023-01-15T10:46:31;8.40;;;2.00;;
44046;SDS011;29713;-33.888;151.150;2023-01-15T10:49:04;10.00;;;2.17;;
44046;SDS011;29713;-33.888;151.150;2023-01-15T10:54:19;11.48;;;1.88;;
44046;SDS011;29713;-33.888;151.150;2023-01-15T10:59:56;11.15;;;1.95;;
44046;SDS011;29713;-33.888;151.150;2023-01-15T11:02:31;9.88;;;2.05;;
44046;SDS011;29713;-33.888;151.150;2023-01-15T11:05:04;9.30;;;1.80;;
44046;SDS011;29713;-33.888;151.150;2023-01-15T11:07:41;12.02;;;1.50;;
44046;SDS011;29713;-33.888;151.150;2023-01-15T11:10:13;7.95;;;1.77;;
44046;SDS011;29713;-33.888;151.150;2023-01-15T11:12:53;9.05;;;2.63;;
44046;SDS011;29713;-33.888;151.150;2023-01-15T11:15:49;6.90;;;1.80;;
44046;SDS011;29713;-33.888;151.150;2023-01-15T11:18:43;5.88;;;1.77;;
44046;SDS011;29713;-33.888;151.150;2023-01-15T11:21:30;11.00;;;1.85;;
44046;SDS011;29713;-33.888;151.150;2023-01-15T11:23:58;8.10;;;1.50;;
44046;SDS011;29713;-33.888;151.150;2023-01-15T11:26:29;6.70;;;1.73;;
44046;SDS011;29713;-33.888;151.150;2023-01-15T11:28:58;6.70;;;1.88;;
44046;SDS011;29713;-33.888;151.150;2023-01-15T11:31:37;8.93;;;1.80;;
44046;SDS011;29713;-33.888;151.150;2023-01-15T11:34:13;10.23;;;1.73;;
44046;SDS011;29713;-33.888;151.150;2023-01-15T11:36:46;11.80;;;2.47;;
44046;SDS011;29713;-33.888;151.150;2023-01-15T11:39:32;11.57;;;2.10;;
44046;SDS011;29713;-33.888;151.150;2023-01-15T11:42:00;7.18;;;1.50;;
44046;SDS011;29713;-33.888;151.150;2023-01-15T11:44:50;8.27;;;1.63;;
44046;SDS011;29713;-33.888;151.150;2023-01-15T11:47:36;6.65;;;1.52;;
44046;SDS011;29713;-33.888;151.150;2023-01-15T11:50:22;7.30;;;1.55;;
44046;SDS011;29713;-33.888;151.150;2023-01-15T11:53:08;9.45;;;2.67;;
44046;SDS011;29713;-33.888;151.150;2023-01-15T11:55:51;5.63;;;1.30;;
44046;SDS011;29713;-33.888;151.150;2023-01-15T11:58:31;8.98;;;2.30;;
44046;SDS011;29713;-33.888;151.150;2023-01-15T12:01:32;6.25;;;1.80;;
44046;SDS011;29713;-33.888;151.150;2023-01-15T12:04:53;9.93;;;2.05;;
44046;SDS011;29713;-33.888;151.150;2023-01-15T12:07:10;6.25;;;1.65;;
44046;SDS011;29713;-33.888;151.150;2023-01-15T12:09:55;6.93;;;1.80;;
44046;SDS011;29713;-33.888;151.150;2023-01-15T12:23:48;11.35;;;2.30;;
44046;SDS011;29713;-33.888;151.150;2023-01-15T12:26:41;9.43;;;2.15;;
44046;SDS011;29713;-33.888;151.150;2023-01-15T12:29:25;6.28;;;1.65;;
44046;SDS011;29713;-33.888;151.150;2023-01-15T12:32:09;14.32;;;2.72;;
44046;SDS011;29713;-33.888;151.150;2023-01-15T12:42:24;7.72;;;2.00;;
44046;SDS011;29713;-33.888;151.150;2023-01-15T12:45:15;12.88;;;2.03;;
44046;SDS011;29713;-33.888;151.150;2023-01-15T13:01:18;8.07;;;2.22;;
44046;SDS011;29713;-33.888;151.150;2023-01-15T13:04:14;10.88;;;1.65;;
44046;SDS011;29713;-33.888;151.150;2023-01-15T13:06:47;7.03;;;1.80;;
44046;SDS011;29713;-33.888;151.150;2023-01-15T13:10:22;6.32;;;1.70;;
44046;SDS011;29713;-33.888;151.150;2023-01-15T13:12:32;7.10;;;1.67;;
44046;SDS011;29713;-33.888;151.150;2023-01-15T13:15:03;9.15;;;1.58;;
44046;SDS011;29713;-33.888;151.150;2023-01-15T13:20:37;8.65;;;1.77;;
44046;SDS011;29713;-33.888;151.150;2023-01-15T13:26:09;13.32;;;2.33;;
44046;SDS011;29713;-33.888;151.150;2023-01-15T13:31:30;16.70;;;2.35;;
44046;SDS011;29713;-33.888;151.150;2023-01-15T13:34:02;14.88;;;2.08;;
44046;SDS011;29713;-33.888;151.150;2023-01-15T13:36:42;10.20;;;1.80;;
44046;SDS011;29713;-33.888;151.150;2023-01-15T13:39:22;6.82;;;1.80;;
44046;SDS011;29713;-33.888;151.150;2023-01-15T13:41:57;6.35;;;1.63;;
44046;SDS011;29713;-33.888;151.150;2023-01-15T13:44:46;7.57;;;1.75;;
44046;SDS011;29713;-33.888;151.150;2023-01-15T13:47:21;9.27;;;2.20;;
44046;SDS011;29713;-33.888;151.150;2023-01-15T13:49:52;7.75;;;1.80;;
44046;SDS011;29713;-33.888;151.150;2023-01-15T13:52:31;7.72;;;1.42;;
44046;SDS011;29713;-33.888;151.150;2023-01-15T13:57:44;7.72;;;1.85;;
44046;SDS011;29713;-33.888;151.150;2023-01-15T14:00:30;11.90;;;2.05;;
44046;SDS011;29713;-33.888;151.150;2023-01-15T14:05:54;7.40;;;1.80;;
44046;SDS011;29713;-33.888;151.150;2023-01-15T14:08:27;7.25;;;1.35;;
44046;SDS011;29713;-33.888;151.150;2023-01-15T14:11:05;10.52;;;2.00;;
44046;SDS011;29713;-33.888;151.150;2023-01-15T14:14:05;5.70;;;1.50;;
44046;SDS011;29713;-33.888;151.150;2023-01-15T14:16:39;14.77;;;1.77;;
44046;SDS011;29713;-33.888;151.150;2023-01-15T14:19:21;14.70;;;2.22;;
44046;SDS011;29713;-33.888;151.150;2023-01-15T14:24:55;7.45;;;1.65;;
44046;SDS011;29713;-33.888;151.150;2023-01-15T14:27:40;9.30;;;2.05;;
44046;SDS011;29713;-33.888;151.150;2023-01-15T14:30:23;8.82;;;1.70;;
44046;SDS011;29713;-33.888;151.150;2023-01-15T14:33:19;7.03;;;1.58;;
44046;SDS011;29713;-33.888;151.150;2023-01-15T14:36:25;9.32;;;2.00;;
44046;SDS011;29713;-33.888;151.150;2023-01-15T14:39:03;9.23;;;1.52;;
44046;SDS011;29713;-33.888;151.150;2023-01-15T14:41:46;8.23;;;1.70;;
44046;SDS011;29713;-33.888;151.150;2023-01-15T14:44:45;7.65;;;1.80;;
44046;SDS011;29713;-33.888;151.150;2023-01-15T14:47:25;5.80;;;1.73;;
44046;SDS011;29713;-33.888;151.150;2023-01-15T14:50:28;8.88;;;2.03;;
44046;SDS011;29713;-33.888;151.150;2023-01-15T14:58:57;11.70;;;2.22;;
44046;SDS011;29713;-33.888;151.150;2023-01-15T15:01:20;5.90;;;1.52;;
44046;SDS011;29713;-33.888;151.150;2023-01-15T15:07:01;14.10;;;2.20;;
44046;SDS011;29713;-33.888;151.150;2023-01-15T15:09:52;7.40;;;1.80;;
44046;SDS011;29713;-33.888;151.150;2023-01-15T15:12:32;5.38;;;1.42;;
44046;SDS011;29713;-33.888;151.150;2023-01-15T15:15:26;10.10;;;1.90;;
44046;SDS011;29713;-33.888;151.150;2023-01-15T15:23:33;8.95;;;1.67;;
44046;SDS011;29713;-33.888;151.150;2023-01-15T15:26:30;4.30;;;1.10;;
44046;SDS011;29713;-33.888;151.150;2023-01-15T15:29:03;4.55;;;1.38;;
44046;SDS011;29713;-33.888;151.150;2023-01-15T15:31:36;6.90;;;1.70;;
44046;SDS011;29713;-33.888;151.150;2023-01-15T15:37:00;6.50;;;1.48;;
44046;SDS011;29713;-33.888;151.150;2023-01-15T15:39:39;6.93;;;1.73;;
44046;SDS011;29713;-33.888;151.150;2023-01-15T15:42:18;7.88;;;1.63;;
44046;SDS011;29713;-33.888;151.150;2023-01-15T15:45:19;6.18;;;1.42;;
44046;SDS011;29713;-33.888;151.150;2023-01-15T15:56:50;7.78;;;1.88;;
44046;SDS011;29713;-33.888;151.150;2023-01-15T15:59:29;8.07;;;1.30;;
44046;SDS011;29713;-33.888;151.150;2023-01-15T16:01:59;5.47;;;1.30;;
44046;SDS011;29713;-33.888;151.150;2023-01-15T16:04:49;3.97;;;1.52;;
44046;SDS011;29713;-33.888;151.150;2023-01-15T16:07:22;5.20;;;1.20;;
44046;SDS011;29713;-33.888;151.150;2023-01-15T16:09:58;7.13;;;1.75;;
44046;SDS011;29713;-33.888;151.150;2023-01-15T16:12:39;7.82;;;1.52;;
44046;SDS011;29713;-33.888;151.150;2023-01-15T16:15:17;7.03;;;1.45;;
44046;SDS011;29713;-33.888;151.150;2023-01-15T16:17:51;7.07;;;1.35;;
44046;SDS011;29713;-33.888;151.150;2023-01-15T16:20:19;6.35;;;1.35;;
44046;SDS011;29713;-33.888;151.150;2023-01-15T16:22:52;6.00;;;1.60;;
44046;SDS011;29713;-33.888;151.150;2023-01-15T16:28:00;6.82;;;1.10;;
44046;SDS011;29713;-33.888;151.150;2023-01-15T16:30:28;4.15;;;1.17;;
44046;SDS011;29713;-33.888;151.150;2023-01-15T16:33:03;6.22;;;1.38;;
44046;SDS011;29713;-33.888;151.150;2023-01-15T16:35:32;5.55;;;1.35;;
44046;SDS011;29713;-33.888;151.150;2023-01-15T16:38:01;3.92;;;1.23;;
44046;SDS011;29713;-33.888;151.150;2023-01-15T16:40:30;6.82;;;1.23;;
44046;SDS011;29713;-33.888;151.150;2023-01-15T16:48:32;5.13;;;1.10;;
44046;SDS011;29713;-33.888;151.150;2023-01-15T16:54:00;5.40;;;1.17;;
44046;SDS011;29713;-33.888;151.150;2023-01-15T16:59:03;7.43;;;1.15;;
44046;SDS011;29713;-33.888;151.150;2023-01-15T17:01:51;6.43;;;1.60;;
44046;SDS011;29713;-33.888;151.150;2023-01-15T17:04:30;8.05;;;1.35;;
44046;SDS011;29713;-33.888;151.150;2023-01-15T17:09:29;9.10;;;1.45;;
44046;SDS011;29713;-33.888;151.150;2023-01-15T17:12:16;6.05;;;1.05;;
44046;SDS011;29713;-33.888;151.150;2023-01-15T17:17:41;7.40;;;1.20;;
44046;SDS011;29713;-33.888;151.150;2023-01-15T17:20:12;5.70;;;1.35;;
44046;SDS011;29713;-33.888;151.150;2023-01-15T17:22:41;7.22;;;1.45;;
44046;SDS011;29713;-33.888;151.150;2023-01-15T17:25:23;5.95;;;1.20;;
44046;SDS011;29713;-33.888;151.150;2023-01-15T17:27:55;5.80;;;1.20;;